Time;durP1;ratioP1;P1;durP2;ratioP2;P2;SDS_P1;SDS_P2;PMS_P1;PMS_P2;Temp;Humidity;BMP_temperature;BMP_pressure;BME280_temperature;BME280_humidity;BME280_pressure;Samples;Min_cycle;Max_cycle;Signal;HPM_P1;HPM_P2
2022/11/21 00:01:25;;;;;;;;;;;4.10;89.20;;;;;;5054842;28;19912;-85
2022/11/21 00:03:50;;;;;;;;;;;4.10;88.70;;;;;;5063572;28;19912;-85
2022/11/21 00:06:16;;;;;;;;;;;4.10;88.50;;;;;;5062070;28;19972;-84
2022/11/21 00:08:42;;;;;;;;;;;4.00;88.90;;;;;;5076435;28;19916;-85
2022/11/21 00:11:08;;;;;;;;;;;4.00;88.70;;;;;;5074146;28;19920;-85
2022/11/21 00:13:33;;;;;;;;;;;4.00;88.80;;;;;;5057485;28;19919;-85
2022/11/21 00:16:06;;;;;;;;;;;4.00;88.70;;;;;;5053659;28;19912;-85
2022/11/21 00:18:33;;;;;;;;;;;4.10;88.80;;;;;;5051984;28;19920;-86
2022/11/21 00:21:10;;;;;;;;;;;4.10;88.40;;;;;;5055563;28;19948;-85
2022/11/21 00:23:36;;;;;;;;;;;4.20;88.30;;;;;;5074210;28;19913;-85
2022/11/21 00:26:05;;;;;;;;;;;4.10;87.90;;;;;;5073130;28;19940;-85
2022/11/21 00:28:31;;;;;;;;;;;4.10;87.90;;;;;;5055581;28;20374;-86
2022/11/21 00:30:56;;;;;;;;;;;4.10;88.70;;;;;;5057576;28;19908;-85
2022/11/21 00:33:22;;;;;;;;;;;4.10;88.20;;;;;;5059707;28;20294;-85
2022/11/21 00:35:48;;;;;;;;;;;4.20;88.40;;;;;;5059066;28;19975;-85
2022/11/21 00:38:14;;;;;;;;;;;4.10;88.10;;;;;;5063670;28;20330;-86
2022/11/21 00:40:41;;;;;;;;;;;4.10;88.00;;;;;;5075695;28;20030;-85
2022/11/21 00:43:06;;;;;;;;;;;4.10;88.10;;;;;;5053186;28;19944;-85
2022/11/21 00:45:32;;;;;;;;;;;4.10;88.30;;;;;;5057513;28;20343;-86
2022/11/21 00:47:57;;;;;;;;;;;4.00;88.00;;;;;;5056609;28;20310;-86
2022/11/21 00:50:22;;;;;;;;;;;4.00;87.90;;;;;;5051576;28;19935;-85
2022/11/21 00:52:48;;;;;;;;;;;4.00;88.00;;;;;;5058713;28;19999;-86
2022/11/21 00:55:13;;;;;;;;;;;4.00;88.10;;;;;;5058122;28;19959;-86
2022/11/21 00:57:39;;;;;;;;;;;4.10;88.00;;;;;;5055393;28;19912;-86
2022/11/21 01:00:05;;;;;;;;;;;4.00;87.30;;;;;;5071366;28;19956;-85
2022/11/21 01:02:31;;;;;;;;;;;4.20;87.30;;;;;;5051953;28;19912;-86
2022/11/21 01:04:56;;;;;;;;;;;4.10;87.40;;;;;;5073103;28;19913;-85
2022/11/21 01:07:21;;;;;;;;;;;4.10;87.90;;;;;;5049340;28;20039;-85
2022/11/21 01:09:47;;;;;;;;;;;4.20;87.80;;;;;;5051499;28;20001;-85
2022/11/21 01:12:12;;;;;;;;;;;4.20;87.80;;;;;;5051770;28;19916;-85
2022/11/21 01:14:38;;;;;;;;;;;4.10;87.20;;;;;;5067573;28;19960;-85
2022/11/21 01:17:03;;;;;;;;;;;4.00;87.50;;;;;;5070535;28;19912;-85
2022/11/21 01:19:29;;;;;;;;;;;4.10;87.90;;;;;;5070464;28;20433;-84
2022/11/21 01:21:54;;;;;;;;;;;4.20;87.70;;;;;;5054404;28;19952;-85
2022/11/21 01:24:19;;;;;;;;;;;4.20;87.70;;;;;;5069707;28;19903;-84
2022/11/21 01:26:45;;;;;;;;;;;4.20;87.70;;;;;;5072545;28;20335;-86
2022/11/21 01:29:10;;;;;;;;;;;4.30;87.40;;;;;;5062683;28;19916;-86
2022/11/21 01:31:36;;;;;;;;;;;4.20;87.40;;;;;;5061104;28;19916;-85
2022/11/21 01:34:01;;;;;;;;;;;4.20;87.50;;;;;;5060617;28;19920;-86
2022/11/21 01:36:28;;;;;;;;;;;4.20;87.90;;;;;;5063083;28;19952;-85
2022/11/21 01:38:54;;;;;;;;;;;4.30;87.40;;;;;;5080079;28;19920;-85
2022/11/21 01:41:30;;;;;;;;;;;4.30;87.40;;;;;;5057549;28;20003;-85
2022/11/21 01:43:55;;;;;;;;;;;4.30;87.40;;;;;;5059606;28;19935;-86
2022/11/21 01:46:21;;;;;;;;;;;4.30;87.20;;;;;;5057223;28;19912;-84
2022/11/21 01:48:50;;;;;;;;;;;4.30;87.30;;;;;;5075918;28;19912;-85
2022/11/21 01:51:19;;;;;;;;;;;4.20;87.20;;;;;;5060314;28;20057;-85
2022/11/21 01:53:48;;;;;;;;;;;4.20;87.60;;;;;;5056010;28;20385;-85
2022/11/21 01:56:14;;;;;;;;;;;4.30;86.80;;;;;;5055614;28;20077;-85
2022/11/21 01:58:40;;;;;;;;;;;4.30;87.20;;;;;;5053618;28;20379;-85
2022/11/21 02:01:06;;;;;;;;;;;4.10;86.60;;;;;;5070712;28;19916;-85
2022/11/21 02:03:33;;;;;;;;;;;4.00;86.70;;;;;;5060326;28;19943;-85
2022/11/21 02:05:58;;;;;;;;;;;4.10;87.30;;;;;;5055954;28;19931;-85
2022/11/21 02:08:25;;;;;;;;;;;4.10;87.00;;;;;;5053057;28;19913;-85
2022/11/21 02:11:07;;;;;;;;;;;4.00;87.10;;;;;;5059297;28;19956;-86
2022/11/21 02:13:32;;;;;;;;;;;4.00;87.00;;;;;;5073969;28;19923;-85
2022/11/21 02:15:58;;;;;;;;;;;4.00;86.80;;;;;;5059956;28;19916;-85
2022/11/21 02:18:23;;;;;;;;;;;3.80;87.00;;;;;;5055416;28;20007;-85
2022/11/21 02:20:52;;;;;;;;;;;3.80;86.90;;;;;;5053363;28;19931;-85
2022/11/21 02:23:26;;;;;;;;;;;3.80;86.80;;;;;;5054049;28;19913;-85
2022/11/21 02:25:53;;;;;;;;;;;3.80;87.40;;;;;;5070110;28;20113;-85
2022/11/21 02:28:20;;;;;;;;;;;3.80;87.60;;;;;;5072222;28;20007;-85
2022/11/21 02:30:45;;;;;;;;;;;3.70;86.70;;;;;;5055106;28;20693;-85
2022/11/21 02:33:11;;;;;;;;;;;3.60;86.90;;;;;;5054129;28;19955;-84
2022/11/21 02:35:37;;;;;;;;;;;3.60;87.50;;;;;;5064347;28;19921;-85
2022/11/21 02:38:04;;;;;;;;;;;3.70;87.30;;;;;;5073390;28;20003;-85
2022/11/21 02:40:33;;;;;;;;;;;3.70;87.40;;;;;;5073657;28;20277;-85
2022/11/21 02:43:09;;;;;;;;;;;3.60;87.20;;;;;;5054351;28;20003;-84
2022/11/21 02:45:36;;;;;;;;;;;3.70;87.40;;;;;;5055766;28;19928;-85
2022/11/21 02:48:02;;;;;;;;;;;3.80;87.50;;;;;;5071006;28;19924;-85
2022/11/21 02:50:29;;;;;;;;;;;3.70;87.70;;;;;;5057255;28;19912;-84
2022/11/21 02:52:54;;;;;;;;;;;3.80;87.90;;;;;;5054355;28;19913;-85
2022/11/21 02:55:20;;;;;;;;;;;3.80;88.10;;;;;;4690333;22;19924;-85
2022/11/21 02:57:46;;;;;;;;;;;3.80;87.70;;;;;;5068946;28;19911;-86
2022/11/21 03:00:12;;;;;;;;;;;3.80;87.40;;;;;;5066348;28;19923;-85
2022/11/21 03:02:37;;;;;;;;;;;3.70;86.50;;;;;;5088079;28;19916;-85
2022/11/21 03:05:03;;;;;;;;;;;3.60;86.80;;;;;;5082400;28;19957;-85
2022/11/21 03:07:29;;;;;;;;;;;3.50;87.20;;;;;;5093811;28;19975;-85
2022/11/21 03:09:54;;;;;;;;;;;3.50;87.60;;;;;;5096927;28;19959;-86
2022/11/21 03:12:20;;;;;;;;;;;3.50;88.00;;;;;;5079223;28;19912;-83
2022/11/21 03:14:45;;;;;;;;;;;3.50;87.50;;;;;;5079812;28;19941;-83
2022/11/21 03:17:11;;;;;;;;;;;3.50;88.00;;;;;;5097059;28;19920;-84
2022/11/21 03:19:36;;;;;;;;;;;3.50;87.60;;;;;;5078162;28;19919;-84
2022/11/21 03:22:02;;;;;;;;;;;3.40;87.00;;;;;;5077069;28;19923;-84
2022/11/21 03:24:27;;;;;;;;;;;3.50;88.00;;;;;;5077743;28;19915;-84
2022/11/21 03:26:53;;;;;;;;;;;3.30;87.10;;;;;;5096929;28;19912;-84
2022/11/21 03:29:18;;;;;;;;;;;3.20;87.30;;;;;;5098312;28;19934;-84
2022/11/21 03:31:44;;;;;;;;;;;3.20;87.60;;;;;;5091130;28;20003;-84
2022/11/21 03:34:09;;;;;;;;;;;3.20;88.20;;;;;;5074567;28;19920;-84
2022/11/21 03:36:34;;;;;;;;;;;3.10;88.40;;;;;;5068875;28;19912;-84
2022/11/21 03:39:00;;;;;;;;;;;3.20;88.00;;;;;;5068081;28;19929;-84
2022/11/21 03:41:28;;;;;;;;;;;3.10;87.40;;;;;;5089867;28;20007;-84
2022/11/21 03:43:54;;;;;;;;;;;3.10;87.80;;;;;;5073919;28;19920;-84
2022/11/21 03:46:19;;;;;;;;;;;3.10;88.30;;;;;;5071954;28;19935;-84
2022/11/21 03:48:45;;;;;;;;;;;3.20;88.60;;;;;;5074677;28;19916;-84
2022/11/21 03:51:10;;;;;;;;;;;3.30;88.90;;;;;;5087861;28;19939;-84
2022/11/21 03:53:36;;;;;;;;;;;3.40;88.90;;;;;;5091064;28;20391;-84
2022/11/21 03:56:01;;;;;;;;;;;3.30;88.30;;;;;;5068234;28;20445;-84
2022/11/21 03:58:26;;;;;;;;;;;3.30;88.20;;;;;;5076810;28;20433;-84
2022/11/21 04:00:52;;;;;;;;;;;3.30;87.90;;;;;;5080596;28;20335;-84
2022/11/21 04:03:17;;;;;;;;;;;3.20;88.00;;;;;;5104378;28;20311;-84
2022/11/21 04:05:43;;;;;;;;;;;3.20;88.20;;;;;;5097973;28;19912;-84
2022/11/21 04:08:08;;;;;;;;;;;3.20;88.30;;;;;;5077629;28;20050;-84
2022/11/21 04:10:34;;;;;;;;;;;3.30;88.60;;;;;;5076701;28;19920;-84
2022/11/21 04:12:59;;;;;;;;;;;3.30;88.60;;;;;;5067470;28;19961;-84
2022/11/21 04:15:25;;;;;;;;;;;3.30;88.50;;;;;;5090867;28;19928;-84
2022/11/21 04:17:50;;;;;;;;;;;3.30;87.90;;;;;;5068199;28;19923;-84
2022/11/21 04:20:16;;;;;;;;;;;3.20;88.40;;;;;;5072509;28;19912;-84
2022/11/21 04:22:41;;;;;;;;;;;3.20;88.60;;;;;;5090905;28;19916;-84
2022/11/21 04:25:06;;;;;;;;;;;3.20;89.00;;;;;;5087723;28;20034;-84
2022/11/21 04:27:32;;;;;;;;;;;3.20;88.70;;;;;;5092581;28;19939;-84
2022/11/21 04:29:57;;;;;;;;;;;3.10;88.40;;;;;;5068896;28;19920;-84
2022/11/21 04:32:23;;;;;;;;;;;3.10;87.90;;;;;;5072539;28;19912;-85
2022/11/21 04:34:48;;;;;;;;;;;3.10;87.60;;;;;;5094619;28;19965;-84
2022/11/21 04:37:14;;;;;;;;;;;3.10;88.20;;;;;;5071555;28;19912;-84
2022/11/21 04:39:39;;;;;;;;;;;3.10;88.60;;;;;;5092312;28;19957;-84
2022/11/21 04:42:05;;;;;;;;;;;3.00;88.50;;;;;;5069627;28;19960;-84
2022/11/21 04:44:30;;;;;;;;;;;3.10;88.90;;;;;;5108832;28;19901;-84
2022/11/21 04:46:55;;;;;;;;;;;3.20;88.70;;;;;;5079947;28;19966;-84
2022/11/21 04:49:21;;;;;;;;;;;3.10;88.50;;;;;;5094551;28;19916;-84
2022/11/21 04:51:46;;;;;;;;;;;3.10;88.50;;;;;;5078419;28;19916;-84
2022/11/21 04:54:12;;;;;;;;;;;3.10;88.20;;;;;;5096025;28;20444;-84
2022/11/21 04:56:37;;;;;;;;;;;3.10;88.40;;;;;;5080460;28;19970;-84
2022/11/21 04:59:03;;;;;;;;;;;3.10;88.50;;;;;;5091660;28;19912;-84
2022/11/21 05:01:28;;;;;;;;;;;3.10;88.60;;;;;;5081494;28;20377;-84
2022/11/21 05:03:54;;;;;;;;;;;3.10;88.60;;;;;;5076195;28;20328;-84
2022/11/21 05:06:19;;;;;;;;;;;3.00;88.50;;;;;;5080119;28;19912;-84
2022/11/21 05:08:44;;;;;;;;;;;3.00;88.60;;;;;;5098175;28;19916;-84
2022/11/21 05:13:54;;;;;;;;;;;3.00;88.60;;;;;;5091212;28;20043;-84
2022/11/21 05:16:19;;;;;;;;;;;3.10;89.20;;;;;;5095420;28;20384;-84
2022/11/21 05:18:45;;;;;;;;;;;3.10;88.90;;;;;;5076822;28;20339;-84
2022/11/21 05:21:10;;;;;;;;;;;3.20;89.00;;;;;;5077693;28;20401;-84
2022/11/21 05:23:36;;;;;;;;;;;3.30;89.10;;;;;;5073807;28;19920;-84
2022/11/21 05:26:01;;;;;;;;;;;3.20;89.00;;;;;;5075656;28;20022;-84
2022/11/21 05:28:27;;;;;;;;;;;3.20;89.00;;;;;;5075723;28;20353;-84
2022/11/21 05:30:52;;;;;;;;;;;3.20;88.90;;;;;;5076718;28;19912;-84
2022/11/21 05:33:18;;;;;;;;;;;3.30;89.40;;;;;;5097505;28;19912;-84
2022/11/21 05:35:43;;;;;;;;;;;3.30;89.20;;;;;;5090602;28;19922;-84
2022/11/21 05:38:09;;;;;;;;;;;3.40;88.60;;;;;;5097884;28;20007;-84
2022/11/21 05:40:34;;;;;;;;;;;3.30;88.40;;;;;;5087487;28;19957;-84
2022/11/21 05:45:44;;;;;;;;;;;3.10;88.90;;;;;;5094258;28;19969;-85
2022/11/21 05:48:09;;;;;;;;;;;3.20;89.20;;;;;;5093530;28;19969;-84
2022/11/21 05:50:35;;;;;;;;;;;3.40;89.80;;;;;;5096302;28;19912;-84
2022/11/21 05:53:02;;;;;;;;;;;3.50;89.70;;;;;;5070737;28;19913;-85
2022/11/21 05:55:28;;;;;;;;;;;3.50;89.60;;;;;;5072250;28;19991;-84
2022/11/21 05:57:53;;;;;;;;;;;3.50;89.90;;;;;;5072845;28;20385;-85
2022/11/21 06:00:18;;;;;;;;;;;3.50;89.50;;;;;;5076297;28;19920;-85
2022/11/21 06:05:28;;;;;;;;;;;3.50;89.10;;;;;;5086062;28;20280;-85
2022/11/21 06:07:54;;;;;;;;;;;3.40;89.20;;;;;;5076481;28;20006;-85
2022/11/21 06:10:19;;;;;;;;;;;3.40;89.70;;;;;;5077721;28;20365;-86
2022/11/21 06:12:45;;;;;;;;;;;3.50;89.70;;;;;;5082670;28;20728;-86
2022/11/21 06:15:10;;;;;;;;;;;3.60;89.70;;;;;;5075255;28;19916;-85
2022/11/21 06:17:36;;;;;;;;;;;3.60;89.50;;;;;;5070896;28;19919;-85
2022/11/21 06:20:01;;;;;;;;;;;3.60;89.70;;;;;;5072986;28;19912;-85
2022/11/21 06:22:26;;;;;;;;;;;3.70;89.90;;;;;;5093778;28;20295;-86
2022/11/21 06:24:52;;;;;;;;;;;3.60;89.40;;;;;;5080518;28;19977;-86
2022/11/21 06:27:17;;;;;;;;;;;3.60;89.20;;;;;;5090060;28;19923;-86
2022/11/21 06:29:43;;;;;;;;;;;3.60;89.60;;;;;;5063437;28;19921;-86
2022/11/21 06:32:08;;;;;;;;;;;3.60;89.30;;;;;;5086270;28;19923;-85
2022/11/21 06:34:34;;;;;;;;;;;3.70;89.80;;;;;;5087061;28;19962;-85
2022/11/21 06:36:59;;;;;;;;;;;3.80;89.90;;;;;;5088425;28;19912;-85
2022/11/21 06:39:25;;;;;;;;;;;3.80;90.00;;;;;;5071448;28;19920;-86
2022/11/21 06:41:50;;;;;;;;;;;3.90;89.90;;;;;;5090687;28;19916;-85
2022/11/21 06:44:16;;;;;;;;;;;3.80;89.70;;;;;;5077868;28;19965;-85
2022/11/21 06:46:42;;;;;;;;;;;3.70;89.70;;;;;;5080721;28;19912;-85
2022/11/21 06:49:07;;;;;;;;;;;3.70;89.60;;;;;;5070210;28;19927;-87
2022/11/21 06:51:33;;;;;;;;;;;3.70;89.50;;;;;;5079138;28;19919;-84
2022/11/21 06:53:58;;;;;;;;;;;3.70;89.40;;;;;;5102282;28;19912;-84
2022/11/21 06:56:25;;;;;;;;;;;3.90;89.90;;;;;;5106804;28;19987;-84
2022/11/21 06:58:50;;;;;;;;;;;3.90;89.70;;;;;;5104228;28;19935;-85
2022/11/21 07:01:16;;;;;;;;;;;3.80;89.30;;;;;;5080902;28;20461;-84
2022/11/21 07:03:41;;;;;;;;;;;3.80;89.50;;;;;;5082156;28;19916;-84
2022/11/21 07:06:07;;;;;;;;;;;3.70;89.30;;;;;;5101906;28;19931;-84
2022/11/21 07:08:34;;;;;;;;;;;3.70;89.60;;;;;;5104519;28;20170;-84
2022/11/21 07:11:04;;;;;;;;;;;3.80;89.70;;;;;;5110279;28;19944;-85
2022/11/21 07:13:31;;;;;;;;;;;3.90;89.70;;;;;;5106688;28;20369;-84
2022/11/21 07:16:04;;;;;;;;;;;4.00;89.60;;;;;;5083788;28;20440;-84
2022/11/21 07:18:29;;;;;;;;;;;4.10;89.90;;;;;;5085107;28;19912;-85
2022/11/21 07:21:02;;;;;;;;;;;4.10;90.00;;;;;;5083717;28;20030;-84
2022/11/21 07:23:28;;;;;;;;;;;4.20;89.80;;;;;;5085057;28;19947;-84
2022/11/21 07:25:54;;;;;;;;;;;4.20;89.60;;;;;;5095229;28;19965;-87
2022/11/21 07:28:19;;;;;;;;;;;4.20;89.50;;;;;;5066513;28;19908;-87
2022/11/21 07:30:45;;;;;;;;;;;4.20;89.60;;;;;;5071750;28;19912;-86
2022/11/21 07:33:10;;;;;;;;;;;4.20;89.60;;;;;;5073487;28;19908;-85
2022/11/21 07:35:36;;;;;;;;;;;4.20;89.40;;;;;;5077694;28;19938;-86
2022/11/21 07:38:02;;;;;;;;;;;4.20;89.40;;;;;;5084776;28;19912;-86
2022/11/21 07:40:27;;;;;;;;;;;4.20;89.60;;;;;;5096939;28;20117;-86
2022/11/21 07:42:53;;;;;;;;;;;4.30;89.60;;;;;;5096136;28;19912;-86
2022/11/21 07:45:18;;;;;;;;;;;4.40;89.90;;;;;;5073620;28;19908;-86
2022/11/21 07:47:44;;;;;;;;;;;4.30;89.80;;;;;;5092461;28;20397;-86
2022/11/21 07:50:11;;;;;;;;;;;4.30;89.60;;;;;;5070883;28;19922;-85
2022/11/21 07:52:36;;;;;;;;;;;4.20;89.60;;;;;;5086885;28;19994;-86
2022/11/21 07:55:03;;;;;;;;;;;4.20;89.70;;;;;;5073251;28;20334;-86
2022/11/21 07:57:29;;;;;;;;;;;4.30;89.90;;;;;;5090069;28;19982;-86
2022/11/21 07:59:54;;;;;;;;;;;4.30;89.90;;;;;;5073106;28;20448;-86
2022/11/21 08:02:21;;;;;;;;;;;4.30;89.80;;;;;;5074666;28;19919;-86
2022/11/21 08:04:47;;;;;;;;;;;4.30;89.90;;;;;;5073697;28;19912;-86
2022/11/21 08:07:16;;;;;;;;;;;4.30;89.80;;;;;;5089544;28;19923;-86
2022/11/21 08:09:41;;;;;;;;;;;4.30;89.70;;;;;;5076908;28;19939;-86
2022/11/21 08:12:07;;;;;;;;;;;4.30;89.70;;;;;;5077766;28;19915;-86
2022/11/21 08:14:33;;;;;;;;;;;4.40;90.00;;;;;;5097511;28;20315;-85
2022/11/21 08:16:58;;;;;;;;;;;4.40;89.90;;;;;;5080486;28;19908;-86
2022/11/21 08:19:24;;;;;;;;;;;4.40;89.70;;;;;;5076987;28;19957;-86
2022/11/21 08:21:49;;;;;;;;;;;4.40;89.40;;;;;;5092147;28;19926;-86
2022/11/21 08:24:16;;;;;;;;;;;4.30;89.60;;;;;;5073870;28;19912;-86
2022/11/21 08:26:42;;;;;;;;;;;4.30;89.70;;;;;;5093945;28;19912;-87
2022/11/21 08:29:08;;;;;;;;;;;4.30;89.80;;;;;;5071202;28;20126;-84
2022/11/21 08:31:35;;;;;;;;;;;4.40;89.80;;;;;;5073421;28;20306;-84
2022/11/21 08:34:00;;;;;;;;;;;4.50;90.10;;;;;;5094916;28;19979;-86
2022/11/21 08:36:25;;;;;;;;;;;4.60;90.20;;;;;;5070462;28;19924;-85
2022/11/21 08:38:51;;;;;;;;;;;4.60;90.00;;;;;;5072654;28;19939;-85
2022/11/21 08:44:00;;;;;;;;;;;4.60;89.80;;;;;;5090697;28;19923;-85
2022/11/21 08:46:27;;;;;;;;;;;4.70;89.90;;;;;;5071410;28;19916;-85
2022/11/21 08:48:53;;;;;;;;;;;4.70;90.00;;;;;;5074157;28;20034;-85
2022/11/21 08:51:19;;;;;;;;;;;4.80;89.80;;;;;;5073336;28;19919;-85
2022/11/21 08:56:15;;;;;;;;;;;4.80;89.60;;;;;;5064757;28;23238;-86
2022/11/21 08:58:41;;;;;;;;;;;4.80;89.60;;;;;;5049119;28;20372;-86
2022/11/21 09:01:06;;;;;;;;;;;4.90;89.80;;;;;;5048194;28;20057;-86
2022/11/21 09:03:32;;;;;;;;;;;4.90;89.90;;;;;;5054158;28;19913;-86
2022/11/21 09:05:58;;;;;;;;;;;5.00;89.90;;;;;;5068744;28;20335;-86
2022/11/21 09:08:24;;;;;;;;;;;4.90;89.80;;;;;;5065264;28;20339;-86
2022/11/21 09:10:49;;;;;;;;;;;5.00;90.00;;;;;;5074286;28;19918;-86
2022/11/21 09:13:15;;;;;;;;;;;5.10;90.00;;;;;;5071448;28;19914;-86
2022/11/21 09:18:24;;;;;;;;;;;5.10;90.00;;;;;;5084328;28;19934;-87
2022/11/21 09:20:50;;;;;;;;;;;5.10;89.90;;;;;;5072269;28;19983;-86
2022/11/21 09:23:15;;;;;;;;;;;5.20;89.80;;;;;;5092028;28;19958;-86
2022/11/21 09:25:41;;;;;;;;;;;5.10;89.60;;;;;;5073413;28;20266;-86
2022/11/21 09:28:08;;;;;;;;;;;5.10;89.90;;;;;;5074115;28;19919;-86
2022/11/21 09:30:34;;;;;;;;;;;5.10;89.80;;;;;;5073796;28;19923;-86
2022/11/21 09:33:00;;;;;;;;;;;5.10;89.50;;;;;;5064931;28;20103;-86
2022/11/21 09:35:25;;;;;;;;;;;5.10;89.60;;;;;;5068888;28;19924;-86
2022/11/21 09:37:51;;;;;;;;;;;5.10;89.70;;;;;;5071072;28;19912;-86
2022/11/21 09:40:17;;;;;;;;;;;5.10;89.80;;;;;;5084325;28;19912;-86
2022/11/21 09:42:51;;;;;;;;;;;5.10;89.80;;;;;;5078216;28;19913;-85
2022/11/21 09:45:33;;;;;;;;;;;5.20;89.90;;;;;;5099351;28;19912;-86
2022/11/21 09:48:01;;;;;;;;;;;5.30;90.00;;;;;;5111343;28;19916;-86
2022/11/21 09:50:31;;;;;;;;;;;5.40;90.00;;;;;;5076423;28;19959;-85
2022/11/21 09:53:10;;;;;;;;;;;5.30;89.70;;;;;;5078261;28;20391;-86
2022/11/21 09:55:36;;;;;;;;;;;5.40;89.80;;;;;;5086921;28;19920;-87
2022/11/21 09:58:03;;;;;;;;;;;5.40;89.60;;;;;;5075523;28;19916;-86
2022/11/21 10:00:29;;;;;;;;;;;5.50;89.80;;;;;;5076250;28;20431;-86
2022/11/21 10:02:55;;;;;;;;;;;5.50;89.70;;;;;;5096366;28;19948;-87
2022/11/21 10:05:41;;;;;;;;;;;5.40;89.60;;;;;;5080206;28;19908;-86
2022/11/21 10:08:29;;;;;;;;;;;5.30;89.70;;;;;;5024081;28;19913;-86
2022/11/21 10:11:03;;;;;;;;;;;5.40;89.80;;;;;;5069784;28;19908;-87
2022/11/21 10:13:42;;;;;;;;;;;5.50;89.90;;;;;;5086127;28;19916;-86
2022/11/21 10:16:12;;;;;;;;;;;5.40;89.70;;;;;;5091224;28;19943;-87
2022/11/21 10:18:55;;;;;;;;;;;5.60;90.00;;;;;;5061813;28;20388;-86
2022/11/21 10:21:39;;;;;;;;;;;5.60;89.30;;;;;;5085932;28;19955;-87
2022/11/21 10:24:24;;;;;;;;;;;5.50;89.30;;;;;;5091966;28;19941;-84
2022/11/21 10:26:52;;;;;;;;;;;5.40;89.90;;;;;;5066854;28;19999;-83
2022/11/21 10:29:20;;;;;;;;;;;5.40;89.60;;;;;;5076746;28;19941;-84
2022/11/21 10:31:46;;;;;;;;;;;5.40;89.80;;;;;;5093894;28;19912;-83
2022/11/21 10:34:14;;;;;;;;;;;5.40;89.80;;;;;;5068570;28;20391;-85
2022/11/21 10:36:41;;;;;;;;;;;5.30;90.10;;;;;;5079997;28;19920;-85
2022/11/21 10:39:17;;;;;;;;;;;5.40;90.30;;;;;;5071991;28;20389;-84
2022/11/21 10:41:52;;;;;;;;;;;5.40;90.40;;;;;;5065332;28;19912;-84
2022/11/21 10:47:26;;;;;;;;;;;5.50;90.80;;;;;;5089993;28;19920;-85
2022/11/21 10:50:10;;;;;;;;;;;5.50;90.90;;;;;;5070513;28;19912;-84
2022/11/21 10:52:59;;;;;;;;;;;5.50;90.70;;;;;;5061074;28;20285;-85
2022/11/21 10:55:24;;;;;;;;;;;5.50;90.90;;;;;;5061784;28;19920;-87
2022/11/21 10:57:54;;;;;;;;;;;5.60;90.90;;;;;;5100444;28;19920;-86
2022/11/21 11:00:26;;;;;;;;;;;5.80;91.00;;;;;;5088817;28;20022;-86
2022/11/21 11:03:08;;;;;;;;;;;6.00;90.90;;;;;;5088473;28;19959;-86
2022/11/21 11:05:35;;;;;;;;;;;6.20;90.30;;;;;;5087913;28;20003;-88
2022/11/21 11:08:11;;;;;;;;;;;6.30;90.30;;;;;;5069978;28;19915;-88
2022/11/21 11:10:41;;;;;;;;;;;6.20;89.80;;;;;;5076672;28;20007;-88
2022/11/21 11:13:32;;;;;;;;;;;6.30;90.10;;;;;;5108374;28;19908;-88
2022/11/21 11:16:01;;;;;;;;;;;6.30;90.10;;;;;;5079754;28;19924;-87
2022/11/21 11:18:30;;;;;;;;;;;6.30;89.90;;;;;;5091790;28;19926;-89
2022/11/21 11:21:08;;;;;;;;;;;6.30;89.70;;;;;;5066535;28;19978;-89
2022/11/21 11:23:33;;;;;;;;;;;6.40;89.90;;;;;;5075032;28;19957;-87
2022/11/21 11:25:59;;;;;;;;;;;6.50;90.10;;;;;;5099311;28;19916;-86
2022/11/21 11:28:25;;;;;;;;;;;6.50;89.40;;;;;;5090719;28;19920;-86
2022/11/21 11:30:52;;;;;;;;;;;6.50;89.40;;;;;;5087580;28;19912;-88
2022/11/21 11:33:37;;;;;;;;;;;6.50;89.50;;;;;;5069043;28;19923;-87
2022/11/21 11:36:21;;;;;;;;;;;6.50;89.10;;;;;;5060659;28;19927;-87
2022/11/21 11:38:57;;;;;;;;;;;6.40;89.50;;;;;;5068589;28;19911;-87
2022/11/21 11:47:29;;;;;;;;;;;6.30;90.10;;;;;;5083688;28;20045;-86
2022/11/21 11:50:12;;;;;;;;;;;6.40;90.50;;;;;;5088781;28;20364;-86
2022/11/21 11:52:56;;;;;;;;;;;6.30;90.20;;;;;;5082213;28;20006;-83
2022/11/21 11:55:36;;;;;;;;;;;6.30;90.40;;;;;;5073897;28;19931;-82
2022/11/21 11:58:07;;;;;;;;;;;6.30;90.40;;;;;;5090365;28;19967;-84
2022/11/21 12:00:48;;;;;;;;;;;6.40;90.80;;;;;;5070112;28;19913;-81
2022/11/21 12:03:19;;;;;;;;;;;6.50;90.90;;;;;;5085290;28;19912;-85
2022/11/21 12:05:51;;;;;;;;;;;6.60;90.80;;;;;;5068084;28;20349;-84
2022/11/21 12:08:41;;;;;;;;;;;6.60;90.50;;;;;;5084667;28;19954;-85
2022/11/21 12:17:10;;;;;;;;;;;6.60;90.70;;;;;;5083284;28;19995;-79
2022/11/21 12:19:36;;;;;;;;;;;6.80;91.10;;;;;;5064522;28;19920;-80
2022/11/21 12:22:05;;;;;;;;;;;7.00;91.20;;;;;;5065786;28;19921;-82
2022/11/21 12:24:31;;;;;;;;;;;7.00;90.90;;;;;;5073720;28;19955;-83
2022/11/21 12:27:04;;;;;;;;;;;7.00;90.80;;;;;;5042408;28;19917;-83
2022/11/21 12:29:51;;;;;;;;;;;7.00;90.80;;;;;;5040641;28;19925;-83
2022/11/21 12:32:39;;;;;;;;;;;7.10;91.00;;;;;;5065257;28;19913;-82
2022/11/21 12:35:08;;;;;;;;;;;7.00;90.80;;;;;;5075935;28;19920;-82
2022/11/21 12:37:36;;;;;;;;;;;7.00;91.00;;;;;;5043864;28;19943;-83
2022/11/21 12:40:06;;;;;;;;;;;7.10;91.00;;;;;;5070691;28;19917;-80
2022/11/21 12:42:50;;;;;;;;;;;7.20;91.00;;;;;;5072768;28;19912;-81
2022/11/21 12:45:35;;;;;;;;;;;7.30;91.00;;;;;;5079244;28;19995;-82
2022/11/21 12:57:10;;;;;;;;;;;7.40;90.70;;;;;;5080515;28;19931;-81
2022/11/21 13:00:00;;;;;;;;;;;7.40;90.50;;;;;;5039714;28;19912;-81
2022/11/21 13:02:37;;;;;;;;;;;7.50;90.40;;;;;;5056446;28;19919;-81
2022/11/21 13:05:04;;;;;;;;;;;7.70;90.30;;;;;;5028980;28;20320;-81
2022/11/21 13:07:30;;;;;;;;;;;7.80;89.80;;;;;;5046395;28;19913;-82
2022/11/21 13:09:58;;;;;;;;;;;7.80;90.00;;;;;;5048521;28;19967;-82
2022/11/21 13:12:29;;;;;;;;;;;7.80;89.90;;;;;;5052760;28;19917;-81
2022/11/21 13:15:14;;;;;;;;;;;7.70;89.10;;;;;;5081620;28;19924;-81
2022/11/21 13:18:13;;;;;;;;;;;7.80;89.40;;;;;;5069748;28;19913;-81
2022/11/21 13:20:44;;;;;;;;;;;7.80;89.60;;;;;;5078900;28;20380;-81
2022/11/21 13:23:29;;;;;;;;;;;7.90;89.40;;;;;;5076437;28;19924;-82
2022/11/21 13:25:54;;;;;;;;;;;7.90;89.20;;;;;;5063111;28;19920;-82
2022/11/21 13:28:20;;;;;;;;;;;7.80;88.70;;;;;;5087602;28;19974;-81
2022/11/21 13:30:46;;;;;;;;;;;7.80;89.00;;;;;;5086839;28;19950;-82
2022/11/21 13:33:30;;;;;;;;;;;7.80;88.80;;;;;;5077200;28;19920;-81
2022/11/21 13:35:56;;;;;;;;;;;7.70;88.70;;;;;;5081206;28;19924;-81
2022/11/21 13:38:21;;;;;;;;;;;7.70;89.10;;;;;;5074707;28;20610;-81
2022/11/21 13:43:31;;;;;;;;;;;7.80;89.30;;;;;;5070606;28;19919;-81
2022/11/21 13:45:58;;;;;;;;;;;7.70;89.00;;;;;;5066803;28;19952;-81
2022/11/21 13:48:30;;;;;;;;;;;7.60;89.00;;;;;;5051575;28;19916;-82
2022/11/21 13:50:58;;;;;;;;;;;7.50;89.10;;;;;;5083235;28;19920;-82
2022/11/21 13:53:33;;;;;;;;;;;7.40;89.20;;;;;;5058083;28;19912;-81
2022/11/21 13:56:06;;;;;;;;;;;7.40;89.20;;;;;;5049574;28;19917;-81
2022/11/21 13:58:41;;;;;;;;;;;7.40;88.90;;;;;;5084871;28;19935;-80
2022/11/21 14:01:16;;;;;;;;;;;7.40;88.90;;;;;;5073584;28;19912;-80
2022/11/21 14:03:48;;;;;;;;;;;7.30;89.10;;;;;;5073540;28;19913;-81
2022/11/21 14:06:22;;;;;;;;;;;7.30;88.80;;;;;;5087677;28;19917;-82
2022/11/21 14:09:07;;;;;;;;;;;7.30;88.90;;;;;;5066538;28;19972;-81
2022/11/21 14:11:46;;;;;;;;;;;7.20;88.90;;;;;;5062921;28;19944;-82
2022/11/21 14:14:21;;;;;;;;;;;7.20;89.20;;;;;;5082141;28;19912;-81
2022/11/21 14:16:50;;;;;;;;;;;7.30;88.70;;;;;;5078361;28;20158;-81
2022/11/21 14:19:18;;;;;;;;;;;7.20;88.70;;;;;;5088539;28;19956;-81
2022/11/21 14:21:44;;;;;;;;;;;7.20;89.00;;;;;;5063076;28;19913;-81
2022/11/21 14:24:17;;;;;;;;;;;7.20;89.10;;;;;;5043484;28;20372;-81
2022/11/21 14:26:45;;;;;;;;;;;7.20;89.10;;;;;;5054202;28;19913;-82
2022/11/21 14:29:18;;;;;;;;;;;7.10;89.10;;;;;;5061112;28;20356;-81
2022/11/21 14:31:44;;;;;;;;;;;7.10;89.20;;;;;;5057305;28;20453;-80
2022/11/21 14:34:10;;;;;;;;;;;7.10;89.30;;;;;;5058778;28;19932;-81
2022/11/21 14:36:37;;;;;;;;;;;7.10;89.50;;;;;;5075582;28;19913;-82
2022/11/21 14:39:07;;;;;;;;;;;7.10;89.30;;;;;;5056521;28;20407;-81
2022/11/21 14:41:33;;;;;;;;;;;7.00;89.40;;;;;;5061020;28;20406;-80
2022/11/21 14:44:00;;;;;;;;;;;7.00;89.40;;;;;;5079576;28;19912;-81
2022/11/21 14:46:33;;;;;;;;;;;7.00;89.50;;;;;;5072675;28;19909;-80
2022/11/21 14:49:14;;;;;;;;;;;6.90;89.30;;;;;;5069770;28;20423;-81
2022/11/21 14:51:40;;;;;;;;;;;6.90;89.30;;;;;;5064416;28;19908;-81
2022/11/21 14:54:11;;;;;;;;;;;6.80;89.20;;;;;;5075168;22;19908;-87
2022/11/21 14:56:39;;;;;;;;;;;6.70;89.20;;;;;;5071611;28;19921;-87
2022/11/21 14:59:10;;;;;;;;;;;6.70;89.10;;;;;;5073720;28;19958;-86
2022/11/21 15:01:36;;;;;;;;;;;6.60;89.30;;;;;;5081849;28;19912;-86
2022/11/21 15:04:01;;;;;;;;;;;6.60;89.30;;;;;;5071617;28;19989;-89
2022/11/21 15:06:28;;;;;;;;;;;6.60;89.30;;;;;;5091890;28;19979;-87
2022/11/21 15:08:55;;;;;;;;;;;6.50;89.20;;;;;;5093022;28;19984;-87
2022/11/21 15:11:37;;;;;;;;;;;6.50;89.30;;;;;;5077552;28;20010;-88
2022/11/21 15:14:19;;;;;;;;;;;6.40;89.30;;;;;;5076426;28;20382;-89
2022/11/21 15:16:46;;;;;;;;;;;6.20;89.00;;;;;;5068574;28;19916;-88
2022/11/21 15:19:17;;;;;;;;;;;6.20;89.10;;;;;;5088286;28;19908;-88
2022/11/21 15:21:43;;;;;;;;;;;6.20;89.30;;;;;;5076465;28;19959;-88